Auburn Township, Ohio
Current Conditions -  °F | °C
As of 5:54 PM on Sunday 21 Dec 2014 (Local Time) from KAKR Reporting Station
Overcast Overcast  
Wind Chill: 26°   Ceiling: 2400
Heat Index: 31°   Visibility: 9mi
Dew Point: 21°   Wind: 5mph
Humidity: 67%   Direction: 170°S
Pressure: 30.23"   Gusts: NA
Location:  41.2966°N, 81.2269°W
Report Text: KAKR 212254Z AUTO 17004KT 9SM OVC024 M01/M06 A3023 RMK AO2 SLP248 T10061061 $
Loading
Personal Weather Stations






























Interactive Weather Map New forecast layout! Learn more

10-Day Weather Forecast

Advertisements
Track Severe Weather on mobile